createdAt,value
2023-03-27T00:00:38.492Z,22.0840
2023-03-27T00:01:40.105Z,22.1134
2023-03-27T00:02:41.958Z,22.1327
2023-03-27T00:03:43.525Z,22.1162
2023-03-27T00:04:45.062Z,22.1010
2023-03-27T00:05:46.733Z,22.1347
2023-03-27T00:06:48.357Z,22.1382
2023-03-27T00:07:50.016Z,22.1331
2023-03-27T00:08:51.657Z,22.1540
2023-03-27T00:09:53.327Z,22.1130
2023-03-27T00:10:55.178Z,22.0910
2023-03-27T00:11:56.617Z,22.0863
2023-03-27T00:12:58.255Z,22.1064
2023-03-27T00:13:59.926Z,22.1390
2023-03-27T00:15:01.537Z,22.1308
2023-03-27T00:16:03.254Z,22.1214
2023-03-27T00:17:04.883Z,22.0926
2023-03-27T00:18:06.552Z,22.1690
2023-03-27T00:19:08.150Z,22.1464
2023-03-27T00:20:09.833Z,22.1390
2023-03-27T00:21:11.513Z,22.1466
2023-03-27T00:22:13.129Z,22.1467
2023-03-27T00:23:14.767Z,22.1565
2023-03-27T00:24:16.435Z,22.1986
2023-03-27T00:25:18.063Z,22.2023
2023-03-27T00:26:19.758Z,22.1871
2023-03-27T00:27:21.371Z,22.1629
2023-03-27T00:28:23.030Z,22.1787
2023-03-27T00:29:24.672Z,22.1805
2023-03-27T00:30:26.325Z,22.1569
2023-03-27T00:31:28.079Z,22.1506
2023-03-27T00:32:29.653Z,22.1464
2023-03-27T00:33:31.300Z,22.1497
2023-03-27T00:34:32.924Z,22.1432
2023-03-27T00:35:34.672Z,22.1064
2023-03-27T00:36:36.248Z,22.1312
2023-03-27T00:37:37.897Z,22.1380
2023-03-27T00:38:39.740Z,22.1308
2023-03-27T00:39:41.222Z,22.1241
2023-03-27T00:40:42.855Z,22.1454
2023-03-27T00:41:44.531Z,22.1645
2023-03-27T00:42:46.152Z,22.1487
2023-03-27T00:43:47.816Z,22.1715
2023-03-27T00:44:49.442Z,22.1684
2023-03-27T00:45:51.126Z,22.1682
2023-03-27T00:46:52.803Z,22.1518
2023-03-27T00:47:54.428Z,22.1226
2023-03-27T00:48:56.047Z,22.1236
2023-03-27T00:49:57.728Z,22.1345
2023-03-27T00:50:59.356Z,22.1243
2023-03-27T00:52:01.058Z,22.1446
2023-03-27T00:53:02.657Z,22.1540
2023-03-27T00:54:04.329Z,22.1273
2023-03-27T00:55:05.985Z,22.1226
2023-03-27T00:56:07.650Z,22.0974
2023-03-27T00:57:09.333Z,22.1310
2023-03-27T00:58:10.946Z,22.1156
2023-03-27T00:59:12.606Z,22.1189
2023-03-27T01:00:14.282Z,22.1160
2023-03-27T01:01:15.904Z,22.1208
2023-03-27T01:02:17.596Z,22.1257
2023-03-27T01:03:19.275Z,22.1331
2023-03-27T01:04:20.849Z,22.1269
2023-03-27T01:05:22.487Z,22.1271
2023-03-27T01:06:24.149Z,22.1199
2023-03-27T01:07:25.788Z,22.1331
2023-03-27T01:08:27.451Z,22.1095
2023-03-27T01:09:29.084Z,22.1148
2023-03-27T01:10:30.753Z,22.1056
2023-03-27T01:11:32.386Z,22.1236
2023-03-27T01:12:34.069Z,22.1189
2023-03-27T01:13:35.693Z,22.1267
2023-03-27T01:14:37.362Z,22.0877
2023-03-27T01:15:39.013Z,22.0967
2023-03-27T01:16:40.663Z,22.0908
2023-03-27T01:17:42.358Z,22.0639
2023-03-27T01:18:43.946Z,22.0659
2023-03-27T01:19:45.594Z,22.0824
2023-03-27T01:20:47.345Z,22.0902
2023-03-27T01:21:48.904Z,22.0770
2023-03-27T01:22:50.599Z,22.1072
2023-03-27T01:23:59.354Z,22.1004
2023-03-27T01:24:53.889Z,22.0785
2023-03-27T01:25:55.500Z,22.0721
2023-03-27T01:26:57.168Z,22.0772
2023-03-27T01:27:58.832Z,22.0807
2023-03-27T01:29:00.477Z,22.0717
2023-03-27T01:30:02.109Z,22.0571
2023-03-27T01:31:03.798Z,22.0324
2023-03-27T01:32:05.414Z,22.0326
2023-03-27T01:33:07.174Z,22.0442
2023-03-27T01:34:08.718Z,22.0702
2023-03-27T01:35:10.398Z,22.0591
2023-03-27T01:36:12.042Z,22.0672
2023-03-27T01:37:13.706Z,22.0768
2023-03-27T01:38:15.355Z,22.0614
2023-03-27T01:39:17.013Z,22.0392
2023-03-27T01:40:18.639Z,22.0540
2023-03-27T01:41:20.316Z,22.0466
2023-03-27T01:42:21.948Z,22.0390
2023-03-27T01:43:23.647Z,22.0353
2023-03-27T01:44:25.247Z,22.0446
2023-03-27T01:45:26.919Z,22.0489
2023-03-27T01:46:28.587Z,22.0538
2023-03-27T01:47:30.237Z,22.0567
2023-03-27T01:48:31.929Z,22.0487
2023-03-27T01:49:33.531Z,22.0485
2023-03-27T01:50:35.152Z,22.0518
2023-03-27T01:51:36.839Z,22.0193
2023-03-27T01:52:38.488Z,22.0207
2023-03-27T01:53:40.294Z,22.0265
2023-03-27T01:54:41.782Z,22.0203
2023-03-27T01:55:43.441Z,22.0146
2023-03-27T01:56:45.091Z,22.0064
2023-03-27T01:57:48.961Z,22.0080
2023-03-27T01:58:48.405Z,22.0109
2023-03-27T01:59:50.061Z,22.0158
2023-03-27T02:01:04.110Z,22.0035
2023-03-27T02:01:53.357Z,21.9990
2023-03-27T02:02:55.009Z,21.9981
2023-03-27T02:03:56.701Z,22.0185
2023-03-27T02:04:58.322Z,22.0236
2023-03-27T02:05:59.962Z,21.9916
2023-03-27T02:07:01.597Z,21.9866
2023-03-27T02:08:03.282Z,22.0014
2023-03-27T02:09:04.911Z,22.0082
2023-03-27T02:10:06.581Z,22.0092
2023-03-27T02:11:08.284Z,22.0008
2023-03-27T02:12:09.946Z,21.9946
2023-03-27T02:13:11.584Z,21.9983
2023-03-27T02:14:13.278Z,21.9990
2023-03-27T02:15:23.659Z,21.9940
2023-03-27T02:16:16.641Z,21.9823
2023-03-27T02:17:18.201Z,21.9946
2023-03-27T02:18:19.881Z,21.9799
2023-03-27T02:19:21.537Z,21.9856
2023-03-27T02:20:23.186Z,21.9811
2023-03-27T02:21:24.846Z,21.9784
2023-03-27T02:22:38.137Z,21.9749
2023-03-27T02:23:28.132Z,21.9782
2023-03-27T02:24:29.867Z,21.9883
2023-03-27T02:25:31.457Z,21.9725
2023-03-27T02:26:33.125Z,21.9735
2023-03-27T02:27:34.743Z,21.9692
2023-03-27T02:28:36.415Z,21.9645
2023-03-27T02:29:38.080Z,21.9673
2023-03-27T02:30:39.735Z,21.9729
2023-03-27T02:31:41.430Z,21.9653
2023-03-27T02:32:43.163Z,21.9698
2023-03-27T02:33:44.681Z,21.9626
2023-03-27T02:34:46.338Z,21.9593
2023-03-27T02:35:48.022Z,21.9552
2023-03-27T02:36:49.646Z,21.9603
2023-03-27T02:37:51.314Z,21.9564
2023-03-27T02:38:52.950Z,21.9519
2023-03-27T02:39:54.638Z,21.9519
2023-03-27T02:40:56.396Z,21.9513
2023-03-27T02:41:57.911Z,21.9495
2023-03-27T02:42:59.577Z,21.9536
2023-03-27T02:44:01.233Z,21.9408
2023-03-27T02:45:02.891Z,21.9441
2023-03-27T02:46:04.625Z,21.9404
2023-03-27T02:47:06.181Z,21.9454
2023-03-27T02:48:07.900Z,21.9394
2023-03-27T02:49:09.484Z,21.9240
2023-03-27T02:50:11.227Z,21.9024
2023-03-27T02:51:12.803Z,21.9258
2023-03-27T02:52:14.464Z,21.9197
2023-03-27T02:53:16.104Z,21.8963
2023-03-27T02:54:17.766Z,21.9090
2023-03-27T02:55:19.426Z,21.9119
2023-03-27T02:56:21.097Z,21.9127
2023-03-27T02:57:24.967Z,21.9283
2023-03-27T02:58:24.391Z,21.9386
2023-03-27T02:59:26.016Z,21.9322
2023-03-27T03:00:27.712Z,21.9076
2023-03-27T03:01:29.365Z,21.8995
2023-03-27T03:02:31.065Z,21.8981
2023-03-27T03:03:32.646Z,21.8876
2023-03-27T03:04:34.307Z,21.8735
2023-03-27T03:05:35.961Z,21.8728
2023-03-27T03:06:37.608Z,21.8720
2023-03-27T03:07:39.248Z,21.8809
2023-03-27T03:08:40.919Z,21.8829
2023-03-27T03:09:42.555Z,21.8874
2023-03-27T03:10:44.241Z,21.8648
2023-03-27T03:11:45.849Z,21.8461
2023-03-27T03:12:47.515Z,21.8408
2023-03-27T03:13:49.147Z,21.8780
2023-03-27T03:14:50.831Z,21.8607
2023-03-27T03:15:52.507Z,21.8694
2023-03-27T03:16:54.177Z,21.8726
2023-03-27T03:17:55.780Z,21.8735
2023-03-27T03:18:57.451Z,21.8677
2023-03-27T03:19:59.069Z,21.8733
2023-03-27T03:21:00.782Z,21.8546
2023-03-27T03:22:02.386Z,21.8389
2023-03-27T03:23:04.056Z,21.8587
2023-03-27T03:24:05.696Z,21.8640
2023-03-27T03:25:07.370Z,21.8539
2023-03-27T03:26:09.022Z,21.8570
2023-03-27T03:27:10.693Z,21.8303
2023-03-27T03:28:12.303Z,21.8355
2023-03-27T03:29:13.972Z,21.8279
2023-03-27T03:30:16.985Z,21.8001
2023-03-27T03:31:17.362Z,21.8051
2023-03-27T03:32:18.916Z,21.8018
2023-03-27T03:33:20.582Z,21.8016
2023-03-27T03:34:22.203Z,21.7889
2023-03-27T03:35:23.898Z,21.8090
2023-03-27T03:36:25.526Z,21.8178
2023-03-27T03:37:27.178Z,21.7985
2023-03-27T03:38:28.815Z,21.8098
2023-03-27T03:39:30.490Z,21.8211
2023-03-27T03:40:32.112Z,21.8098
2023-03-27T03:41:33.804Z,21.7993
2023-03-27T03:42:35.422Z,21.7995
2023-03-27T03:43:37.086Z,21.7687
2023-03-27T03:44:38.741Z,21.7862
2023-03-27T03:45:40.395Z,21.7899
2023-03-27T03:46:42.041Z,21.7950
2023-03-27T03:47:43.725Z,21.7901
2023-03-27T03:48:45.317Z,21.7884
2023-03-27T03:49:46.993Z,21.7886
2023-03-27T03:50:48.623Z,21.7691
2023-03-27T03:52:03.775Z,21.7695
2023-03-27T03:52:51.921Z,21.7800
2023-03-27T03:53:53.586Z,21.7899
2023-03-27T03:54:55.239Z,21.7878
2023-03-27T03:55:56.883Z,21.8124
2023-03-27T03:56:58.557Z,21.7699
2023-03-27T03:58:00.192Z,21.7580
2023-03-27T03:59:01.846Z,21.7722
2023-03-27T04:00:03.504Z,21.7619
2023-03-27T04:01:05.126Z,21.7564
2023-03-27T04:02:06.837Z,21.7539
2023-03-27T04:03:08.640Z,21.7675
2023-03-27T04:04:10.104Z,21.7726
2023-03-27T04:05:11.745Z,21.7666
2023-03-27T04:06:13.419Z,21.7414
2023-03-27T04:07:15.060Z,21.7381
2023-03-27T04:08:16.715Z,21.7354
2023-03-27T04:09:18.341Z,21.7393
2023-03-27T04:10:20.048Z,21.7547
2023-03-27T04:11:21.660Z,21.7346
2023-03-27T04:12:23.353Z,21.7251
2023-03-27T04:13:24.987Z,21.7106
2023-03-27T04:14:26.622Z,21.7147
2023-03-27T04:15:28.266Z,21.7229
2023-03-27T04:16:29.994Z,21.7173
2023-03-27T04:17:31.622Z,21.7011
2023-03-27T04:18:33.367Z,21.7071
2023-03-27T04:19:34.888Z,21.7217
2023-03-27T04:20:36.537Z,21.7241
2023-03-27T04:21:38.158Z,21.7042
2023-03-27T04:22:39.847Z,21.7227
2023-03-27T04:23:41.463Z,21.7393
2023-03-27T04:24:43.140Z,21.7375
2023-03-27T04:25:44.810Z,21.7315
2023-03-27T04:26:46.441Z,21.7321
2023-03-27T04:27:48.088Z,21.7364
2023-03-27T04:28:49.730Z,21.7496
2023-03-27T04:29:51.369Z,21.7944
2023-03-27T04:30:53.038Z,21.7890
2023-03-27T04:31:54.681Z,21.7972
2023-03-27T04:32:56.389Z,21.7880
2023-03-27T04:33:57.977Z,21.7814
2023-03-27T04:34:59.651Z,21.7767
2023-03-27T04:36:06.360Z,21.7759
2023-03-27T04:37:02.958Z,21.5970
2023-03-27T04:38:04.616Z,21.5025
2023-03-27T04:39:06.260Z,21.5616
2023-03-27T04:40:07.892Z,21.6438
2023-03-27T04:41:09.545Z,21.6984
2023-03-27T04:42:11.178Z,21.7245
2023-03-27T04:43:12.887Z,21.7223
2023-03-27T04:44:14.493Z,21.7151
2023-03-27T04:45:16.190Z,21.7165
2023-03-27T04:46:17.825Z,21.7249
2023-03-27T04:47:19.476Z,21.7399
2023-03-27T04:48:21.140Z,21.7258
2023-03-27T04:49:22.780Z,21.7592
2023-03-27T04:50:24.403Z,21.7551
2023-03-27T04:51:26.089Z,21.7488
2023-03-27T04:52:27.725Z,21.7397
2023-03-27T04:53:29.556Z,21.7543
2023-03-27T04:54:31.055Z,21.7325
2023-03-27T04:55:32.680Z,21.7422
2023-03-27T04:56:34.363Z,21.7260
2023-03-27T04:57:35.987Z,21.7173
2023-03-27T04:58:37.945Z,21.7436
2023-03-27T04:59:39.301Z,21.7670
2023-03-27T05:00:40.987Z,21.7482
2023-03-27T05:01:42.606Z,21.6181
2023-03-27T05:02:44.270Z,21.5259
2023-03-27T05:03:45.976Z,21.6042
2023-03-27T05:04:47.551Z,21.6136
2023-03-27T05:05:49.190Z,21.6331
2023-03-27T05:06:50.872Z,21.6771
2023-03-27T05:07:52.580Z,21.6824
2023-03-27T05:08:54.177Z,21.6713
2023-03-27T05:09:55.777Z,21.6767
2023-03-27T05:10:57.712Z,21.6777
2023-03-27T05:11:59.098Z,21.6820
2023-03-27T05:13:00.769Z,21.6522
2023-03-27T05:14:02.426Z,21.6243
2023-03-27T05:15:04.089Z,21.6461
2023-03-27T05:16:05.720Z,21.6520
2023-03-27T05:17:07.374Z,21.6596
2023-03-27T05:18:09.322Z,21.6795
2023-03-27T05:19:10.767Z,21.6974
2023-03-27T05:20:12.319Z,21.6851
2023-03-27T05:21:13.974Z,21.6713
2023-03-27T05:22:15.626Z,21.6557
2023-03-27T05:23:17.288Z,21.6354
2023-03-27T05:24:18.931Z,21.6512
2023-03-27T05:25:20.586Z,21.6754
2023-03-27T05:26:22.215Z,21.6719
2023-03-27T05:27:23.923Z,21.6703
2023-03-27T05:28:25.525Z,21.6658
2023-03-27T05:29:27.232Z,21.6524
2023-03-27T05:30:28.927Z,21.6590
2023-03-27T05:31:30.573Z,21.6641
2023-03-27T05:32:32.170Z,21.6594
2023-03-27T05:33:33.785Z,21.6837
2023-03-27T05:34:35.496Z,21.6908
2023-03-27T05:35:37.125Z,21.6993
2023-03-27T05:36:38.773Z,21.7272
2023-03-27T05:37:40.405Z,21.7309
2023-03-27T05:38:42.064Z,21.7268
2023-03-27T05:39:43.732Z,21.7157
2023-03-27T05:40:45.374Z,21.6742
2023-03-27T05:41:47.005Z,21.6448
2023-03-27T05:42:48.674Z,21.6239
2023-03-27T05:43:51.241Z,21.6239
2023-03-27T05:44:51.996Z,21.6175
2023-03-27T05:45:53.626Z,21.6101
2023-03-27T05:46:55.291Z,21.6077
2023-03-27T05:47:56.991Z,21.6229
2023-03-27T05:48:58.592Z,21.6411
2023-03-27T05:50:00.249Z,21.6424
2023-03-27T05:51:01.903Z,21.6237
2023-03-27T05:52:03.510Z,21.6181
2023-03-27T05:53:05.200Z,21.6494
2023-03-27T05:54:06.809Z,21.6668
2023-03-27T05:55:08.523Z,21.6660
2023-03-27T05:56:10.116Z,21.6596
2023-03-27T05:57:11.914Z,21.6327
2023-03-27T05:58:13.462Z,21.6516
2023-03-27T05:59:15.077Z,21.6545
2023-03-27T06:00:16.762Z,21.6641
2023-03-27T06:01:18.388Z,21.6621
2023-03-27T06:02:21.517Z,21.6722
2023-03-27T06:03:21.876Z,21.6812
2023-03-27T06:04:23.358Z,21.6604
2023-03-27T06:05:25.023Z,21.6510
2023-03-27T06:06:26.637Z,21.6787
2023-03-27T06:07:28.305Z,21.6732
2023-03-27T06:08:29.933Z,21.6678
2023-03-27T06:09:31.583Z,21.6746
2023-03-27T06:10:33.250Z,21.6746
2023-03-27T06:11:34.889Z,21.6594
2023-03-27T06:12:36.526Z,21.6512
2023-03-27T06:13:38.260Z,21.6557
2023-03-27T06:14:39.906Z,21.6641
2023-03-27T06:15:41.635Z,21.6516
2023-03-27T06:16:43.201Z,21.6522
2023-03-27T06:17:44.894Z,21.6457
2023-03-27T06:18:46.498Z,21.6374
2023-03-27T06:19:48.184Z,21.6280
2023-03-27T06:20:49.815Z,21.6300
2023-03-27T06:21:51.460Z,21.6270
2023-03-27T06:22:53.104Z,21.6370
2023-03-27T06:23:54.763Z,21.6440
2023-03-27T06:24:56.389Z,21.6526
2023-03-27T06:25:58.378Z,21.6315
2023-03-27T06:26:59.691Z,21.6323
2023-03-27T06:28:01.364Z,21.6259
2023-03-27T06:29:08.142Z,21.6263
2023-03-27T06:30:04.676Z,21.6169
2023-03-27T06:31:06.355Z,21.5966
2023-03-27T06:32:07.981Z,21.6229
2023-03-27T06:33:09.621Z,21.6266
2023-03-27T06:34:11.284Z,21.6374
2023-03-27T06:35:12.896Z,21.6296
2023-03-27T06:36:14.625Z,21.6142
2023-03-27T06:37:16.181Z,21.6171
2023-03-27T06:38:17.862Z,21.6033
2023-03-27T06:39:19.479Z,21.5801
2023-03-27T06:40:21.139Z,21.5768
2023-03-27T06:41:22.802Z,21.5933
2023-03-27T06:42:24.445Z,21.5953
2023-03-27T06:43:26.075Z,21.5692
2023-03-27T06:44:27.738Z,21.5690
2023-03-27T06:45:29.393Z,21.5641
2023-03-27T06:46:42.688Z,21.5555
2023-03-27T06:47:36.382Z,21.5553
2023-03-27T06:48:34.366Z,21.5740
2023-03-27T06:49:35.975Z,21.5442
2023-03-27T06:50:37.629Z,21.5610
2023-03-27T06:51:39.281Z,21.5614
2023-03-27T06:52:40.928Z,21.5547
2023-03-27T06:53:42.558Z,21.5604
2023-03-27T06:54:44.216Z,21.5779
2023-03-27T06:55:45.868Z,21.5814
2023-03-27T06:56:47.610Z,21.5647
2023-03-27T06:57:49.166Z,21.5512
2023-03-27T06:58:50.836Z,21.5479
2023-03-27T06:59:52.488Z,21.5526
2023-03-27T07:00:54.129Z,21.5419
2023-03-27T07:01:55.830Z,21.5386
2023-03-27T07:02:57.420Z,21.5516
2023-03-27T07:03:59.065Z,21.5538
2023-03-27T07:05:04.649Z,21.5382
2023-03-27T07:06:02.556Z,21.5372
2023-03-27T07:07:04.049Z,21.5294
2023-03-27T07:08:18.997Z,21.5294
2023-03-27T07:09:07.318Z,21.5343
2023-03-27T07:10:08.962Z,21.5370
2023-03-27T07:11:12.266Z,21.5351
2023-03-27T07:12:12.278Z,21.5358
2023-03-27T07:13:13.919Z,21.5290
2023-03-27T07:14:15.589Z,21.5222
2023-03-27T07:15:17.295Z,21.5191
2023-03-27T07:16:18.892Z,21.5271
2023-03-27T07:17:20.532Z,21.5347
2023-03-27T07:18:22.216Z,21.5144
2023-03-27T07:19:23.822Z,21.4974
2023-03-27T07:20:25.473Z,21.5099
2023-03-27T07:21:27.137Z,21.5025
2023-03-27T07:22:28.799Z,21.5158
2023-03-27T07:23:30.435Z,21.5076
2023-03-27T07:24:32.060Z,21.5033
2023-03-27T07:25:33.744Z,21.5008
2023-03-27T07:26:35.354Z,21.4994
2023-03-27T07:27:37.063Z,21.5093
2023-03-27T07:28:38.729Z,21.5089
2023-03-27T07:29:40.337Z,21.5121
2023-03-27T07:30:41.983Z,21.5097
2023-03-27T07:31:57.525Z,21.5093
2023-03-27T07:32:45.408Z,21.5134
2023-03-27T07:33:47.068Z,21.5045
2023-03-27T07:34:48.579Z,21.5058
2023-03-27T07:35:50.256Z,21.5031
2023-03-27T07:36:51.894Z,21.4867
2023-03-27T07:37:53.579Z,21.4817
2023-03-27T07:38:55.184Z,21.4941
2023-03-27T07:39:56.847Z,21.4846
2023-03-27T07:40:58.504Z,21.4811
2023-03-27T07:42:00.164Z,21.4826
2023-03-27T07:43:01.834Z,21.4836
2023-03-27T07:44:03.464Z,21.4807
2023-03-27T07:45:05.090Z,21.4838
2023-03-27T07:46:06.803Z,21.4830
2023-03-27T07:47:08.397Z,21.4809
2023-03-27T07:48:10.087Z,21.4807
2023-03-27T07:49:11.685Z,21.4873
2023-03-27T07:50:13.380Z,21.4830
2023-03-27T07:51:14.982Z,21.4854
2023-03-27T07:52:16.738Z,21.4840
2023-03-27T07:53:32.806Z,21.4850
2023-03-27T07:54:19.945Z,21.4822
2023-03-27T07:55:21.582Z,21.4873
2023-03-27T07:56:23.276Z,21.4717
2023-03-27T07:57:25.041Z,21.4776
2023-03-27T07:58:26.857Z,21.4743
2023-03-27T07:59:28.197Z,21.4748
2023-03-27T08:00:29.980Z,21.4764
2023-03-27T08:01:31.480Z,21.4764
2023-03-27T08:02:33.188Z,21.4754
2023-03-27T08:03:34.922Z,21.4743
2023-03-27T08:04:36.584Z,21.4822
2023-03-27T08:05:38.080Z,21.4861
2023-03-27T08:06:39.751Z,21.4809
2023-03-27T08:07:41.389Z,21.4756
2023-03-27T08:08:43.092Z,21.4795
2023-03-27T08:09:44.697Z,21.4709
2023-03-27T08:10:46.361Z,21.4698
2023-03-27T08:11:48.010Z,21.4770
2023-03-27T08:12:49.668Z,21.4770
2023-03-27T08:13:51.330Z,21.4774
2023-03-27T08:14:52.968Z,21.4682
2023-03-27T08:15:54.750Z,21.4661
2023-03-27T08:17:08.648Z,21.4667
2023-03-27T08:17:57.937Z,21.4608
2023-03-27T08:18:59.640Z,21.4620
2023-03-27T08:20:01.226Z,21.4649
2023-03-27T08:21:02.957Z,21.4583
2023-03-27T08:22:04.501Z,21.4678
2023-03-27T08:23:06.191Z,21.4612
2023-03-27T08:24:07.833Z,21.4692
2023-03-27T08:25:09.502Z,21.4663
2023-03-27T08:26:11.101Z,21.4540
2023-03-27T08:27:12.798Z,21.4594
2023-03-27T08:28:14.433Z,21.4653
2023-03-27T08:29:16.138Z,21.4655
2023-03-27T08:30:17.794Z,21.4690
2023-03-27T08:31:19.487Z,21.4676
2023-03-27T08:32:21.035Z,21.4622
2023-03-27T08:33:22.739Z,21.4491
2023-03-27T08:34:24.397Z,21.4616
2023-03-27T08:35:26.026Z,21.4600
2023-03-27T08:36:27.632Z,21.4608
2023-03-27T08:37:29.265Z,21.4661
2023-03-27T08:38:30.964Z,21.4567
2023-03-27T08:39:32.630Z,21.4579
2023-03-27T08:40:34.219Z,21.4604
2023-03-27T08:41:35.882Z,21.4509
2023-03-27T08:42:37.556Z,21.4559
2023-03-27T08:43:39.142Z,21.4616
2023-03-27T08:44:40.873Z,21.4542
2023-03-27T08:45:42.470Z,21.4567
2023-03-27T08:46:44.136Z,21.4676
2023-03-27T08:48:48.556Z,21.4690
2023-03-27T08:49:50.144Z,21.4647
2023-03-27T08:50:51.817Z,21.4612
2023-03-27T08:51:53.406Z,21.4532
2023-03-27T08:52:55.059Z,21.4618
2023-03-27T08:53:56.719Z,21.4589
2023-03-27T08:54:58.502Z,21.4649
2023-03-27T08:56:00.003Z,21.4651
2023-03-27T08:57:01.759Z,21.4645
2023-03-27T08:58:03.334Z,21.4600
2023-03-27T08:59:04.992Z,21.4511
2023-03-27T09:00:06.650Z,21.4540
2023-03-27T09:01:08.301Z,21.4557
2023-03-27T09:02:09.989Z,21.4487
2023-03-27T09:03:11.721Z,21.4435
2023-03-27T09:04:13.218Z,21.4441
2023-03-27T09:05:14.931Z,21.4470
2023-03-27T09:06:16.567Z,21.4481
2023-03-27T09:07:18.188Z,21.4433
2023-03-27T09:08:19.804Z,21.4474
2023-03-27T09:09:21.461Z,21.4505
2023-03-27T09:10:23.199Z,21.4538
2023-03-27T09:11:24.804Z,21.4528
2023-03-27T09:12:26.430Z,21.4567
2023-03-27T09:13:28.027Z,21.4565
2023-03-27T09:14:29.686Z,21.4552
2023-03-27T09:15:31.384Z,21.4536
2023-03-27T09:16:33.122Z,21.4435
2023-03-27T09:17:34.683Z,21.4481
2023-03-27T09:18:36.316Z,21.4396
2023-03-27T09:19:37.947Z,21.4333
2023-03-27T09:20:39.662Z,21.4396
2023-03-27T09:21:41.229Z,21.4329
2023-03-27T09:22:42.904Z,21.4193
2023-03-27T09:23:44.523Z,21.4261
2023-03-27T09:24:46.236Z,21.4185
2023-03-27T09:25:47.926Z,21.4289
2023-03-27T09:27:01.072Z,21.4363
2023-03-27T09:27:51.132Z,21.4342
2023-03-27T09:28:52.806Z,21.4320
2023-03-27T09:30:05.960Z,21.4384
2023-03-27T09:30:56.226Z,21.4440
2023-03-27T09:31:57.744Z,21.4162
2023-03-27T09:32:59.448Z,21.4287
2023-03-27T09:34:01.001Z,21.4216
2023-03-27T09:35:02.752Z,21.4335
2023-03-27T09:36:04.460Z,21.4302
2023-03-27T09:37:06.056Z,21.4326
2023-03-27T09:38:07.640Z,21.4423
2023-03-27T09:39:09.314Z,21.4372
2023-03-27T09:40:10.954Z,21.4333
2023-03-27T09:41:12.634Z,21.4361
2023-03-27T09:42:14.238Z,21.4298
2023-03-27T09:43:15.920Z,21.4289
2023-03-27T09:44:17.596Z,21.4101
2023-03-27T09:45:19.301Z,21.4273
2023-03-27T09:46:20.933Z,21.4236
2023-03-27T09:47:22.520Z,21.4318
2023-03-27T09:48:24.185Z,21.4209
2023-03-27T09:49:25.814Z,21.4207
2023-03-27T09:50:27.945Z,21.4181
2023-03-27T09:51:29.269Z,21.4246
2023-03-27T09:52:30.711Z,21.4101
2023-03-27T09:53:32.434Z,21.4076
2023-03-27T09:54:34.058Z,21.4105
2023-03-27T09:55:35.717Z,21.4096
2023-03-27T09:56:37.392Z,21.4059
2023-03-27T09:57:39.077Z,21.4164
2023-03-27T09:58:40.678Z,21.4214
2023-03-27T09:59:42.307Z,21.4222
2023-03-27T10:00:44.031Z,21.3955
2023-03-27T10:01:45.632Z,21.4020
2023-03-27T10:02:47.297Z,21.4055
2023-03-27T10:03:49.108Z,21.4002
2023-03-27T10:04:50.548Z,21.3940
2023-03-27T10:05:52.216Z,21.4029
2023-03-27T10:06:53.852Z,21.3977
2023-03-27T10:07:55.522Z,21.4094
2023-03-27T10:08:57.165Z,21.3895
2023-03-27T10:09:58.836Z,21.3969
2023-03-27T10:11:00.485Z,21.3907
2023-03-27T10:12:02.190Z,21.4144
2023-03-27T10:13:03.767Z,21.4244
2023-03-27T10:14:05.454Z,21.4016
2023-03-27T10:15:07.112Z,21.4066
2023-03-27T10:16:08.837Z,21.4076
2023-03-27T10:17:10.450Z,21.3983
2023-03-27T10:18:12.199Z,21.3979
2023-03-27T10:19:13.855Z,21.3870
2023-03-27T10:20:15.491Z,21.3932
2023-03-27T10:21:17.100Z,21.3961
2023-03-27T10:22:18.766Z,21.3866
2023-03-27T10:23:20.359Z,21.3967
2023-03-27T10:24:22.005Z,21.3940
2023-03-27T10:25:23.678Z,21.3887
2023-03-27T10:26:25.343Z,21.3942
2023-03-27T10:27:26.976Z,21.4033
2023-03-27T10:28:28.609Z,21.3986
2023-03-27T10:29:30.262Z,21.3969
2023-03-27T10:30:31.912Z,21.3883
2023-03-27T10:31:33.588Z,21.3891
2023-03-27T10:32:35.268Z,21.3903
2023-03-27T10:33:36.885Z,21.3821
2023-03-27T10:34:38.517Z,21.3799
2023-03-27T10:35:40.179Z,21.3973
2023-03-27T10:36:41.842Z,21.3883
2023-03-27T10:37:49.773Z,21.3735
2023-03-27T10:38:45.132Z,21.3870
2023-03-27T10:39:46.756Z,21.3858
2023-03-27T10:40:48.426Z,21.3928
2023-03-27T10:41:50.067Z,21.3788
2023-03-27T10:42:51.782Z,21.3893
2023-03-27T10:43:53.360Z,21.3799
2023-03-27T10:44:55.030Z,21.3762
2023-03-27T10:45:56.764Z,21.3797
2023-03-27T10:46:58.347Z,21.3642
2023-03-27T10:48:00.038Z,21.3739
2023-03-27T10:49:01.635Z,21.3566
2023-03-27T10:50:03.267Z,21.3519
2023-03-27T10:51:04.945Z,21.3626
2023-03-27T10:52:06.560Z,21.3564
2023-03-27T10:53:08.336Z,21.3780
2023-03-27T10:54:09.902Z,21.3669
2023-03-27T10:55:11.537Z,21.3495
2023-03-27T10:56:13.176Z,21.3581
2023-03-27T10:57:14.868Z,21.3439
2023-03-27T10:58:16.481Z,21.3421
2023-03-27T10:59:21.509Z,21.3542
2023-03-27T11:00:19.763Z,21.3643
2023-03-27T11:01:21.505Z,21.3741
2023-03-27T11:02:23.115Z,21.3702
2023-03-27T11:03:24.807Z,21.3421
2023-03-27T11:04:26.378Z,21.3398
2023-03-27T11:05:28.092Z,21.3289
2023-03-27T11:06:29.698Z,21.3332
2023-03-27T11:07:31.369Z,21.3536
2023-03-27T11:08:33.062Z,21.3608
2023-03-27T11:09:34.708Z,21.3478
2023-03-27T11:10:36.320Z,21.3501
2023-03-27T11:11:38.031Z,21.3404
2023-03-27T11:12:39.608Z,21.3476
2023-03-27T11:13:41.279Z,21.3499
2023-03-27T11:14:42.917Z,21.3445
2023-03-27T11:15:44.608Z,21.3493
2023-03-27T11:16:46.242Z,21.3486
2023-03-27T11:17:47.905Z,21.3260
2023-03-27T11:18:49.573Z,21.3295
2023-03-27T11:19:51.176Z,21.3505
2023-03-27T11:20:52.789Z,21.3480
2023-03-27T11:21:54.485Z,21.3351
2023-03-27T11:22:56.138Z,21.3308
2023-03-27T11:23:57.926Z,21.3597
2023-03-27T11:24:59.429Z,21.3349
2023-03-27T11:26:01.075Z,21.3408
2023-03-27T11:27:02.754Z,21.3427
2023-03-27T11:28:04.444Z,21.3357
2023-03-27T11:29:06.059Z,21.3240
2023-03-27T11:30:07.705Z,21.3382
2023-03-27T11:31:12.112Z,21.3400
2023-03-27T11:32:10.995Z,21.3377
2023-03-27T11:33:12.608Z,21.3349
2023-03-27T11:34:14.345Z,21.3287
2023-03-27T11:35:15.923Z,21.3419
2023-03-27T11:36:17.619Z,21.3304
2023-03-27T11:37:19.217Z,21.3254
2023-03-27T11:38:20.911Z,21.3207
2023-03-27T11:39:22.626Z,21.3106
2023-03-27T11:40:24.232Z,21.3269
2023-03-27T11:41:25.847Z,21.3076
2023-03-27T11:42:27.604Z,21.3236
2023-03-27T11:43:29.135Z,21.3149
2023-03-27T11:44:30.847Z,21.3022
2023-03-27T11:45:32.452Z,21.3193
2023-03-27T11:46:34.168Z,21.3287
2023-03-27T11:47:35.759Z,21.3248
2023-03-27T11:48:37.394Z,21.3100
2023-03-27T11:49:39.141Z,21.3043
2023-03-27T11:50:40.750Z,21.3186
2023-03-27T11:51:42.403Z,21.3014
2023-03-27T11:52:43.997Z,21.3223
2023-03-27T11:53:45.684Z,21.3211
2023-03-27T11:54:47.379Z,21.3334
2023-03-27T11:55:49.008Z,21.3149
2023-03-27T11:56:50.643Z,21.2913
2023-03-27T11:57:52.278Z,21.3028
2023-03-27T11:58:53.917Z,21.3082
2023-03-27T11:59:55.616Z,21.3051
2023-03-27T12:00:57.393Z,21.3053
2023-03-27T12:01:58.936Z,21.3156
2023-03-27T12:03:00.574Z,21.2977
2023-03-27T12:04:02.320Z,21.2971
2023-03-27T12:05:03.866Z,21.2963
2023-03-27T12:06:05.556Z,21.2905
2023-03-27T12:07:09.836Z,21.2813
2023-03-27T12:08:08.790Z,21.3141
2023-03-27T12:09:10.428Z,21.3004
2023-03-27T12:10:12.140Z,21.2971
2023-03-27T12:11:13.716Z,21.2919
2023-03-27T12:12:15.391Z,21.2997
2023-03-27T12:13:17.021Z,21.3004
2023-03-27T12:14:19.140Z,21.2845
2023-03-27T12:15:20.421Z,21.2948
2023-03-27T12:16:22.092Z,21.3197
2023-03-27T12:17:23.725Z,21.3086
2023-03-27T12:18:35.277Z,21.2802
2023-03-27T12:19:29.680Z,21.2934
2023-03-27T12:20:28.745Z,21.2852
2023-03-27T12:21:30.330Z,21.2804
2023-03-27T12:22:31.921Z,21.2712
2023-03-27T12:23:33.522Z,21.2891
2023-03-27T12:24:35.196Z,21.2899
2023-03-27T12:25:36.931Z,21.2835
2023-03-27T12:26:38.626Z,21.2628